ROMMA est une association bénévole à but non lucratif. Votre soutien est indispensable : ADHERER à ROMMA ou FAIRE un DON

Taninges - (74, Haute-Savoie)

Vallée du Giffre (635 m)   Longitude: 06° 35' 38" E   Latitude: 46° 06' 21" N Station romma n°98
 

Détail journalier du     <<     >>

Température Precipitation Humidité Pression Vent Dir Rafale Dir. rafale Ensol.
Heure (°C) (mm) (%) (hPa) (km/h) (km/h) (min)
01:00 -0.308510171ESE6S0
02:00 -1.008610171SSE6ENE0
03:00 -1.9090101803ENE0
04:00 -2.7091101803SSE0
05:00 -3.1092101803SSE0
06:00 -3.4093101903SSE0
07:00 -3.5093101903SSE0
08:00 -0.40.294101905ESE35
09:00 2.408310182ESE8SSE60
10:00 5.407610183SE10OSO60
11:00 7.206210184O15SO55
12:00 7.905510186O24O45
13:00 8.705310186O21O5
14:00 8.805510186O16O0
15:00 9.604910196O18O0
16:00 10.004910196NO19ONO15
17:00 10.304810195O15O5
18:00 9.804910194OSO10ONO0
19:00 11.104410184OSO10O45
20:00 9.505210195ONO15O35
21:00 6.906010195NO19ONO0
22:00 6.106010197ENE16NNE0
23:00 2.907910193S16E0
minuit 0.8085102003S0

Graphique du 06-05-2019

 

Serveur OMMA